• Join FlightAware (Why Join?)
  • Login
  • US Flag 
07:06PM EDT


 

Airport Tracker/Info


-or-


 

Live Flight TrackerFlight Track Log ✈ JZA8557 ✈ 26-Sep-2013 ✈ CYYC - CYYJ

Flight Track Log - Related Links

Times and Time Zones

All times are in EDT time to prevent confusion due to time zone crossing. See the JZA8557 flight status page for this flight to view local times or setup timezone preferences in your user account.

Time Position Orientation Groundspeed Altitude Reporting Facility
EDT Latitude Longitude Course Direction KTS MPH feet Rate Location/Type
09:17PM 51.1167 -114.1000 242° Southwest 170 196 5,100  Level Edmonton Center
09:18PM 51.1333 -114.1833 288° West 190 219 6,900 1,980 Climbing Edmonton Center
09:19PM 51.1667 -114.2667 303° West 210 242 9,100 1,920 Climbing Edmonton Center
09:20PM 51.0016 -114.5478 255° West  Level Estimated
09:20PM 51.2000 -114.3500 303° West 220 253 10,800  Level Edmonton Center
09:21PM 50.9707 -114.6692 248° West  Level FlightAware Approximate
09:21PM 51.1667 -114.4333 237° Southwest 250 288 12,700  Level Edmonton Center
09:22PM 50.9362 -114.7913 242° Southwest  Level FlightAware Approximate
09:22PM 51.1167 -114.5000 220° Southwest 270 311 14,000  Level Edmonton Center
09:23PM 51.0500 -114.6000 223° Southwest 280 322 15,500 1,380 Climbing Edmonton Center
09:24PM 51.0333 -114.7000 255° West 270 311 16,800 1,260 Climbing Edmonton Center
09:25PM 51.0333 -114.8333 270° West 280 322 18,100 1,200 Climbing Edmonton Center
09:26PM 51.0333 -114.9500 270° West 280 322 19,300 1,140 Climbing Edmonton Center
09:27PM 51.0333 -115.0833 270° West 280 322 20,400 1,080 Climbing Edmonton Center
09:28PM 51.0167 -115.2000 257° West 290 334 21,500 1,020 Climbing Edmonton Center
09:29PM 50.9833 -115.3167 246° West 290 334 22,500 960 Climbing Edmonton Center
09:30PM 50.9667 -115.4333 257° West 280 322 23,500 660 Climbing Edmonton Center
09:31PM 50.9333 -115.5667 248° West 290 334 23,900 240 Climbing Edmonton Center
09:32PM 50.9167 -115.7000 259° West 300 345 24,000  Climbing Edmonton Center
09:33PM 50.8833 -115.8333 248° West 320 368 24,000  Level Edmonton Center
09:34PM 50.8667 -115.9500 257° West 320 368 24,000  Level Edmonton Center
09:35PM 50.8333 -116.1000 251° West 320 368 24,000  Level Edmonton Center
09:36PM 50.8167 -116.2333 259° West 310 357 24,000  Level Edmonton Center
09:37PM 50.7833 -116.3667 248° West 310 357 24,000  Level Edmonton Center
09:38PM 50.7500 -116.4833 246° West 310 357 24,000  Level Edmonton Center
09:39PM 50.7167 -116.6167 248° West 310 357 24,000  Level Edmonton Center
09:41PM 50.6667 -116.9000 255° West 310 357 24,000  Level Edmonton Center
09:42PM 50.6500 -117.0333 259° West 310 357 24,000  Level Edmonton Center
09:43PM 50.6167 -117.1500 246° West 310 357 24,000  Level Edmonton Center
09:44PM 50.6000 -117.2833 259° West 310 357 24,000  Level Edmonton Center
09:45PM 50.5667 -117.4000 246° West 310 357 24,000  Level Edmonton Center
09:46PM 50.5333 -117.5333 249° West 320 368 24,000  Level Edmonton Center
09:47PM 50.5000 -117.6667 249° West 320 368 24,000  Level Edmonton Center
09:48PM 50.4667 -117.8167 251° West 320 368 24,000  Level Edmonton Center
09:49PM 50.4500 -117.9333 257° West 320 368 24,000  Level Edmonton Center
09:50PM 50.4167 -118.0833 251° West 320 368 24,000  Level Edmonton Center
09:51PM 50.3833 -118.2167 249° West 320 368 24,000  Level Edmonton Center
09:52PM 50.3500 -118.3333 246° West 320 368 24,000  Level Edmonton Center
09:53PM 50.3167 -118.4833 251° West 330 380 24,000  Level Edmonton Center
09:54PM 50.3000 -118.6167 259° West 330 380 24,000  Level Edmonton Center
09:55PM 50.2667 -118.7667 251° West 340 391 24,000  Level Edmonton Center
09:56PM 50.2333 -118.8833 246° West 340 391 24,000  Level Edmonton Center
09:57PM 50.2000 -119.0333 251° West 340 391 24,000  Level Edmonton Center
09:58PM 50.1667 -119.1667 249° West 340 391 24,000  Level Edmonton Center
09:59PM 50.1167 -119.3167 243° Southwest 340 391 24,000  Level Edmonton Center
10:00PM 50.1000 -119.4333 257° West 350 403 24,000  Level Edmonton Center
10:01PM 50.0833 -119.5833 260° West 350 403 24,000  Level Vancouver Center
10:02PM 50.0333 -119.7500 245° Southwest 350 403 24,000  Level Vancouver Center
10:03PM 50.0000 -119.8833 249° West 360 414 24,000  Level Vancouver Center
10:04PM 49.9667 -120.0333 251° West 360 414 24,000  Level Vancouver Center
10:05PM 49.9333 -120.1667 249° West 360 414 24,000  Level Vancouver Center
10:06PM 49.9000 -120.3167 251° West 360 414 24,000  Level Vancouver Center
10:07PM 49.8500 -120.4500 240° Southwest 360 414 24,000  Level Vancouver Center
10:08PM 49.8333 -120.6167 261° West 360 414 24,000  Level Vancouver Center
10:09PM 49.8000 -120.7500 249° West 360 414 24,000  Level Vancouver Center
10:10PM 49.7667 -120.9000 251° West 360 414 24,000  Level Vancouver Center
10:11PM 49.7167 -121.0667 245° Southwest 360 414 24,000  Level Vancouver Center
10:12PM 49.7000 -121.2000 259° West 360 414 24,000  Level Vancouver Center
10:13PM 49.6667 -121.3167 246° West 360 414 24,000  Level Vancouver Center
10:14PM 49.6333 -121.4833 253° West 360 414 24,000  Level Vancouver Center
10:15PM 49.6000 -121.6333 251° West 360 414 24,000  Level Vancouver Center
10:16PM 49.5667 -121.7833 251° West 360 414 24,000  Level Vancouver Center
10:17PM 49.5333 -121.9167 249° West 360 414 24,000 -240 Level Vancouver Center
10:18PM 49.5000 -122.0833 253° West 350 403 23,600 -960 Descending Vancouver Center
10:19PM 49.4500 -122.2000 237° Southwest 370 426 22,100 -1,560 Descending Vancouver Center
10:20PM 49.3833 -122.3333 233° Southwest 390 449 20,500 -1,620 Descending Vancouver Center
10:21PM 49.3333 -122.5000 245° Southwest 390 449 18,900 -1,620 Descending Vancouver Center
10:22PM 49.2667 -122.6167 229° Southwest 390 449 17,300 -960 Descending Vancouver Center
10:23PM 49.2167 -122.7500 240° Southwest 370 426 17,000 -180 Descending Vancouver Center
10:24PM 49.1667 -122.8833 240° Southwest 360 414 17,000 -360 Level Vancouver Center
10:25PM 49.1167 -123.0167 240° Southwest 360 414 16,300 -1,260 Descending Vancouver Center
10:26PM 49.0500 -123.1333 229° Southwest 360 414 14,500 -1,800 Descending Vancouver Center
10:27PM 48.9667 -123.2167 213° Southwest 360 414 12,800 -1,800 Descending Vancouver Center
10:28PM 48.8833 -123.2667 202° Southwest 340 391 11,000 -1,800 Descending Vancouver Center
10:29PM 48.8167 -123.3500 219° Southwest 310 357 9,200 -1,800 Descending Vancouver Center
10:30PM 48.7833 -123.4500 243° Southwest 270 311 7,500 -1,620 Descending Vancouver Center
10:31PM 48.7833 -123.5667 270° West 260 299 6,000 -1,080 Descending Vancouver Center
10:32PM 48.7500 -123.6167 225° Southwest 210 242 5,400 -900 Descending Vancouver Center
10:33PM 48.7000 -123.6500 204° Southwest 200 230 4,300 -1,380 Descending Vancouver Center
10:34PM 48.6667 -123.6000 135° Southeast 180 207 2,700 -1,500 Descending Vancouver Center
10:35PM 48.6500 -123.5167 107° East 170 196 1,400 -1,200 Descending Vancouver Center
10:36PM 48.6333 -123.4667 117° Southeast 150 173 400 -1,020 Descending Vancouver Center